createdAt,value
2017-08-24T00:01:04.272Z,14.30
2017-08-24T00:03:30.799Z,14.30
2017-08-24T00:05:57.230Z,14.30
2017-08-24T00:08:23.669Z,14.30
2017-08-24T00:10:50.029Z,14.20
2017-08-24T00:13:16.469Z,14.20
2017-08-24T00:15:42.882Z,14.20
2017-08-24T00:18:09.629Z,14.20
2017-08-24T00:20:36.030Z,14.20
2017-08-24T00:23:02.406Z,14.10
2017-08-24T00:25:28.786Z,14.10
2017-08-24T00:27:55.756Z,14.10
2017-08-24T00:30:23.570Z,14.10
2017-08-24T00:32:50.065Z,14.10
2017-08-24T00:35:16.395Z,14.10
2017-08-24T00:37:42.807Z,14.20
2017-08-24T00:40:09.137Z,14.20
2017-08-24T00:42:35.852Z,14.10
2017-08-24T00:45:02.242Z,14.10
2017-08-24T00:47:28.610Z,14.10
2017-08-24T00:49:55.014Z,14.00
2017-08-24T00:52:21.442Z,14.00
2017-08-24T00:54:47.845Z,14.00
2017-08-24T00:57:14.219Z,14.00
2017-08-24T00:59:40.889Z,13.90
2017-08-24T01:02:07.367Z,13.90
2017-08-24T01:04:33.724Z,13.90
2017-08-24T01:07:00.054Z,13.90
2017-08-24T01:09:26.410Z,13.90
2017-08-24T01:11:52.810Z,14.00
2017-08-24T01:14:19.185Z,13.90
2017-08-24T01:16:45.570Z,13.90
2017-08-24T01:19:12.017Z,13.90
2017-08-24T01:21:38.767Z,14.00
2017-08-24T01:24:05.213Z,13.90
2017-08-24T01:26:31.659Z,13.90
2017-08-24T01:28:58.066Z,13.90
2017-08-24T01:31:24.461Z,13.90
2017-08-24T01:33:50.839Z,13.90
2017-08-24T01:36:17.226Z,13.90
2017-08-24T01:38:44.007Z,13.90
2017-08-24T01:41:10.998Z,13.80
2017-08-24T01:43:37.763Z,13.80
2017-08-24T01:46:04.779Z,13.80
2017-08-24T01:48:31.198Z,13.80
2017-08-24T01:50:57.573Z,13.80
2017-08-24T01:53:23.972Z,13.70
2017-08-24T01:55:50.352Z,13.70
2017-08-24T01:58:17.962Z,13.70
2017-08-24T02:00:44.735Z,13.70
2017-08-24T02:03:11.204Z,13.70
2017-08-24T02:05:37.565Z,13.70
2017-08-24T02:10:36.970Z,13.70
2017-08-24T02:13:03.358Z,13.70
2017-08-24T02:15:30.094Z,13.70
2017-08-24T02:17:56.513Z,13.70
2017-08-24T02:20:22.883Z,13.70
2017-08-24T02:22:49.669Z,13.60
2017-08-24T02:25:16.080Z,13.60
2017-08-24T02:27:42.461Z,13.60
2017-08-24T02:30:08.953Z,13.60
2017-08-24T02:32:35.307Z,13.60
2017-08-24T02:35:02.056Z,13.60
2017-08-24T02:37:28.518Z,13.50
2017-08-24T02:39:54.879Z,13.60
2017-08-24T02:42:21.289Z,13.50
2017-08-24T02:44:47.675Z,13.50
2017-08-24T02:47:14.053Z,13.50
2017-08-24T02:49:40.489Z,13.50
2017-08-24T02:52:06.850Z,13.50
2017-08-24T02:54:33.237Z,13.50
2017-08-24T02:57:00.029Z,13.50
2017-08-24T02:59:26.384Z,13.40
2017-08-24T03:01:52.794Z,13.50
2017-08-24T03:04:19.188Z,13.50
2017-08-24T03:06:45.565Z,13.50
2017-08-24T03:09:11.959Z,13.50
2017-08-24T03:11:38.331Z,13.50
2017-08-24T03:14:04.793Z,13.50
2017-08-24T03:16:31.149Z,13.50
2017-08-24T03:18:57.523Z,13.50
2017-08-24T03:21:23.890Z,13.40
2017-08-24T03:23:50.602Z,13.40
2017-08-24T03:26:16.971Z,13.40
2017-08-24T03:28:43.364Z,13.40
2017-08-24T03:31:09.759Z,13.30
2017-08-24T03:33:36.136Z,13.30
2017-08-24T03:36:02.542Z,13.30
2017-08-24T03:38:28.929Z,13.30
2017-08-24T03:40:55.521Z,13.30
2017-08-24T03:43:21.892Z,13.30
2017-08-24T03:45:48.639Z,13.30
2017-08-24T03:48:15.035Z,13.30
2017-08-24T03:50:41.424Z,13.30
2017-08-24T03:53:07.837Z,13.30
2017-08-24T03:55:34.248Z,13.30
2017-08-24T03:58:00.617Z,13.40
2017-08-24T04:00:27.075Z,13.30
2017-08-24T04:02:53.522Z,13.30
2017-08-24T04:05:19.956Z,13.30
2017-08-24T04:07:46.723Z,13.30
2017-08-24T04:10:13.016Z,13.30
2017-08-24T04:12:39.402Z,13.30
2017-08-24T04:15:05.791Z,13.30
2017-08-24T04:17:34.235Z,13.30
2017-08-24T04:20:01.926Z,13.30
2017-08-24T04:22:28.974Z,13.30
2017-08-24T04:24:56.026Z,13.30
2017-08-24T04:27:22.457Z,13.20
2017-08-24T04:29:48.841Z,13.20
2017-08-24T04:32:15.238Z,13.20
2017-08-24T04:34:41.600Z,13.20
2017-08-24T04:37:08.032Z,13.20
2017-08-24T04:39:34.434Z,13.30
2017-08-24T04:42:00.877Z,13.30
2017-08-24T04:44:27.339Z,13.30
2017-08-24T04:46:54.069Z,13.30
2017-08-24T04:49:20.494Z,13.40
2017-08-24T04:51:46.849Z,13.40
2017-08-24T04:54:13.269Z,13.40
2017-08-24T04:56:39.667Z,13.50
2017-08-24T04:59:06.036Z,13.50
2017-08-24T05:01:32.423Z,13.50
2017-08-24T05:03:58.823Z,13.60
2017-08-24T05:06:25.195Z,13.50
2017-08-24T05:08:51.592Z,13.60
2017-08-24T05:11:17.942Z,13.60
2017-08-24T05:13:44.353Z,13.70
2017-08-24T05:16:10.721Z,13.80
2017-08-24T05:18:37.065Z,13.80
2017-08-24T05:21:03.794Z,13.90
2017-08-24T05:23:30.180Z,13.90
2017-08-24T05:25:56.512Z,14.00
2017-08-24T05:28:22.948Z,14.10
2017-08-24T05:30:49.319Z,14.20
2017-08-24T05:33:16.053Z,14.20
2017-08-24T05:35:42.511Z,14.30
2017-08-24T05:38:08.867Z,14.30
2017-08-24T05:40:35.313Z,14.40
2017-08-24T05:43:01.718Z,14.50
2017-08-24T05:45:28.086Z,14.60
2017-08-24T05:47:54.505Z,14.60
2017-08-24T05:50:20.874Z,14.70
2017-08-24T05:52:47.253Z,14.80
2017-08-24T05:55:13.654Z,14.90
2017-08-24T05:57:40.023Z,15.10
2017-08-24T06:00:06.734Z,15.20
2017-08-24T06:02:33.163Z,15.30
2017-08-24T06:04:59.585Z,15.40
2017-08-24T06:07:25.995Z,15.50
2017-08-24T06:09:52.726Z,15.60
2017-08-24T06:12:19.206Z,15.70
2017-08-24T06:14:45.553Z,15.80
2017-08-24T06:17:11.934Z,15.90
2017-08-24T06:19:38.548Z,16.10
2017-08-24T06:22:05.210Z,16.20
2017-08-24T06:24:31.560Z,16.30
2017-08-24T06:26:57.950Z,16.30
2017-08-24T06:29:24.339Z,16.40
2017-08-24T06:31:50.704Z,16.50
2017-08-24T06:34:17.144Z,16.60
2017-08-24T06:36:43.522Z,16.60
2017-08-24T06:39:09.900Z,16.70
2017-08-24T06:41:36.331Z,16.80
2017-08-24T06:44:03.024Z,16.90
2017-08-24T06:46:29.407Z,16.90
2017-08-24T06:48:55.789Z,17.10
2017-08-24T06:51:22.202Z,17.20
2017-08-24T06:53:48.555Z,17.30
2017-08-24T06:56:14.904Z,17.40
2017-08-24T06:58:41.716Z,17.40
2017-08-24T07:01:08.104Z,17.60
2017-08-24T07:03:41.480Z,17.70
2017-08-24T07:06:07.868Z,17.80
2017-08-24T07:08:34.253Z,18.00
2017-08-24T07:11:00.937Z,18.10
2017-08-24T07:13:27.370Z,18.30
2017-08-24T07:15:53.740Z,18.40
2017-08-24T07:18:20.115Z,18.50
2017-08-24T07:20:46.476Z,18.60
2017-08-24T07:23:12.859Z,18.70
2017-08-24T07:25:39.264Z,18.80
2017-08-24T07:28:05.717Z,19.00
2017-08-24T07:30:32.179Z,19.10
2017-08-24T07:32:58.841Z,19.20
2017-08-24T07:35:25.217Z,19.30
2017-08-24T07:37:51.629Z,19.50
2017-08-24T07:40:17.969Z,19.60
2017-08-24T07:42:44.321Z,19.70
2017-08-24T07:45:11.364Z,19.90
2017-08-24T07:47:37.740Z,20.00
2017-08-24T07:50:04.153Z,20.20
2017-08-24T07:52:30.550Z,20.30
2017-08-24T07:54:57.804Z,20.50
2017-08-24T07:57:24.161Z,20.60
2017-08-24T07:59:50.591Z,20.80
2017-08-24T08:02:17.042Z,20.90
2017-08-24T08:04:44.580Z,21.10
2017-08-24T08:07:10.954Z,21.20
2017-08-24T08:09:37.397Z,21.40
2017-08-24T08:12:03.767Z,21.50
2017-08-24T08:14:30.136Z,21.70
2017-08-24T08:16:58.940Z,21.90
2017-08-24T08:19:25.996Z,22.10
2017-08-24T08:21:52.399Z,22.20
2017-08-24T08:24:18.809Z,22.40
2017-08-24T08:26:45.198Z,22.50
2017-08-24T08:29:11.627Z,22.70
2017-08-24T08:31:38.278Z,22.80
2017-08-24T08:34:04.643Z,23.00
2017-08-24T08:36:31.030Z,23.10
2017-08-24T08:38:57.417Z,23.20
2017-08-24T08:41:23.859Z,23.30
2017-08-24T08:43:50.937Z,23.40
2017-08-24T08:46:17.437Z,23.50
2017-08-24T08:48:43.810Z,23.60
2017-08-24T08:51:10.226Z,23.70
2017-08-24T08:53:36.614Z,23.80
2017-08-24T08:56:03.003Z,23.90
2017-08-24T08:58:30.649Z,24.10
2017-08-24T09:00:57.077Z,24.20
2017-08-24T09:03:23.483Z,24.30
2017-08-24T09:05:49.911Z,24.40
2017-08-24T09:08:16.310Z,24.50
2017-08-24T09:10:42.666Z,24.70
2017-08-24T09:13:09.112Z,24.80
2017-08-24T09:15:35.525Z,24.80
2017-08-24T09:18:02.405Z,25.00
2017-08-24T09:20:28.862Z,25.10
2017-08-24T09:22:55.226Z,25.10
2017-08-24T09:25:22.306Z,25.20
2017-08-24T09:27:48.719Z,25.30
2017-08-24T09:30:15.514Z,25.40
2017-08-24T09:32:41.893Z,25.50
2017-08-24T09:35:09.062Z,25.60
2017-08-24T09:37:36.310Z,25.60
2017-08-24T09:40:03.245Z,25.60
2017-08-24T09:42:29.639Z,25.70
2017-08-24T09:44:55.993Z,25.70
2017-08-24T09:47:23.731Z,25.80
2017-08-24T09:49:50.104Z,25.90
2017-08-24T09:52:16.516Z,26.00
2017-08-24T09:54:42.857Z,26.00
2017-08-24T09:57:09.200Z,26.10
2017-08-24T09:59:35.572Z,26.20
2017-08-24T10:02:01.986Z,26.30
2017-08-24T10:04:28.319Z,26.40
2017-08-24T10:06:54.797Z,26.50
2017-08-24T10:09:21.175Z,26.60
2017-08-24T10:11:47.603Z,26.70
2017-08-24T10:14:14.125Z,26.80
2017-08-24T10:16:40.591Z,27.10
2017-08-24T10:19:08.134Z,27.40
2017-08-24T10:21:35.460Z,27.50
2017-08-24T10:24:02.504Z,27.80
2017-08-24T10:26:29.781Z,27.90
2017-08-24T10:28:56.236Z,28.10
2017-08-24T10:31:23.449Z,28.30
2017-08-24T10:33:49.901Z,28.60
2017-08-24T10:36:16.910Z,28.90
2017-08-24T10:38:43.274Z,29.10
2017-08-24T10:41:09.644Z,29.20
2017-08-24T10:43:35.993Z,29.30
2017-08-24T10:46:02.698Z,29.30
2017-08-24T10:48:29.043Z,29.50
2017-08-24T10:50:55.425Z,29.60
2017-08-24T10:53:22.337Z,29.80
2017-08-24T10:55:49.788Z,29.90
2017-08-24T10:58:16.196Z,30.10
2017-08-24T11:00:42.597Z,30.30
2017-08-24T11:03:09.024Z,30.50
2017-08-24T11:05:35.401Z,30.70
2017-08-24T11:08:02.559Z,30.80
2017-08-24T11:10:28.979Z,31.10
2017-08-24T11:12:55.765Z,31.30
2017-08-24T11:15:23.200Z,31.50
2017-08-24T11:17:49.760Z,31.50
2017-08-24T11:20:16.304Z,31.30
2017-08-24T11:22:42.693Z,31.40
2017-08-24T11:25:09.140Z,31.40
2017-08-24T11:27:35.508Z,31.40
2017-08-24T11:30:01.882Z,31.40
2017-08-24T11:32:29.123Z,31.40
2017-08-24T11:34:55.664Z,31.50
2017-08-24T11:37:22.506Z,31.60
2017-08-24T11:39:50.381Z,31.80
2017-08-24T11:42:16.880Z,32.00
2017-08-24T11:44:43.506Z,31.90
2017-08-24T11:47:10.376Z,31.90
2017-08-24T11:49:36.832Z,31.80
2017-08-24T11:52:03.227Z,31.80
2017-08-24T11:54:29.596Z,31.90
2017-08-24T11:56:56.069Z,32.20
2017-08-24T11:59:22.464Z,32.50
2017-08-24T12:01:48.907Z,32.40
2017-08-24T12:04:15.356Z,32.40
2017-08-24T12:06:41.849Z,32.40
2017-08-24T12:09:09.189Z,32.50
2017-08-24T12:11:35.948Z,32.40
2017-08-24T12:14:02.360Z,32.20
2017-08-24T12:16:28.724Z,31.90
2017-08-24T12:18:55.187Z,31.60
2017-08-24T12:21:23.785Z,31.50
2017-08-24T12:23:50.831Z,31.60
2017-08-24T12:26:17.692Z,32.00
2017-08-24T12:28:44.124Z,32.50
2017-08-24T12:31:11.354Z,33.00
2017-08-24T12:33:38.942Z,33.70
2017-08-24T12:36:05.383Z,33.60
2017-08-24T12:38:32.068Z,34.00
2017-08-24T12:40:58.409Z,34.30
2017-08-24T12:43:24.860Z,34.60
2017-08-24T12:45:51.287Z,34.70
2017-08-24T12:48:17.646Z,34.50
2017-08-24T12:50:44.006Z,34.10
2017-08-24T12:53:10.395Z,33.80
2017-08-24T12:55:36.913Z,33.80
2017-08-24T12:58:03.317Z,33.90
2017-08-24T13:00:30.375Z,34.40
2017-08-24T13:02:57.625Z,34.80
2017-08-24T13:05:24.423Z,35.10
2017-08-24T13:07:50.795Z,35.30
2017-08-24T13:10:18.453Z,35.50
2017-08-24T13:12:44.857Z,35.60
2017-08-24T13:15:11.222Z,35.60
2017-08-24T13:17:37.605Z,35.60
2017-08-24T13:23:04.425Z,35.60
2017-08-24T13:25:30.913Z,35.60
2017-08-24T13:27:57.533Z,35.60
2017-08-24T13:30:24.559Z,35.70
2017-08-24T13:32:51.297Z,35.80
2017-08-24T13:35:17.645Z,35.80
2017-08-24T13:37:44.022Z,35.80
2017-08-24T13:40:10.401Z,35.90
2017-08-24T13:42:36.880Z,35.90
2017-08-24T13:45:03.274Z,35.90
2017-08-24T13:47:29.771Z,35.90
2017-08-24T13:49:56.266Z,35.90
2017-08-24T13:52:22.655Z,35.90
2017-08-24T13:54:48.998Z,36.00
2017-08-24T13:57:15.496Z,35.90
2017-08-24T13:59:42.183Z,36.00
2017-08-24T14:02:09.392Z,36.00
2017-08-24T14:04:36.108Z,36.20
2017-08-24T14:07:02.486Z,36.40
2017-08-24T14:09:28.853Z,36.30
2017-08-24T14:11:55.325Z,36.20
2017-08-24T14:14:21.665Z,36.30
2017-08-24T14:16:48.123Z,36.20
2017-08-24T14:19:14.639Z,36.20
2017-08-24T14:21:41.001Z,36.30
2017-08-24T14:24:07.351Z,36.50
2017-08-24T14:26:35.611Z,36.60
2017-08-24T14:29:02.307Z,36.60
2017-08-24T14:31:28.654Z,36.60
2017-08-24T14:33:55.021Z,36.60
2017-08-24T14:36:21.352Z,36.60
2017-08-24T14:38:47.697Z,36.70
2017-08-24T14:41:14.702Z,36.60
2017-08-24T14:43:42.063Z,36.70
2017-08-24T14:46:08.449Z,36.70
2017-08-24T14:48:35.183Z,36.80
2017-08-24T14:51:01.562Z,36.90
2017-08-24T14:53:27.969Z,36.90
2017-08-24T14:56:01.428Z,36.90
2017-08-24T14:58:27.808Z,36.80
2017-08-24T15:00:54.180Z,36.70
2017-08-24T15:03:21.083Z,36.60
2017-08-24T15:05:47.489Z,36.40
2017-08-24T15:08:13.854Z,36.20
2017-08-24T15:10:40.249Z,36.10
2017-08-24T15:13:06.864Z,36.00
2017-08-24T15:15:33.504Z,35.90
2017-08-24T15:17:59.938Z,35.80
2017-08-24T15:20:26.663Z,35.70
2017-08-24T15:22:53.016Z,35.60
2017-08-24T15:25:19.388Z,35.40
2017-08-24T15:27:45.749Z,35.40
2017-08-24T15:30:12.108Z,35.40
2017-08-24T15:32:38.507Z,35.40
2017-08-24T15:35:04.831Z,35.40
2017-08-24T15:37:31.210Z,35.30
2017-08-24T15:39:57.579Z,35.30
2017-08-24T15:42:23.947Z,35.20
2017-08-24T15:44:50.309Z,35.10
2017-08-24T15:47:16.684Z,35.10
2017-08-24T15:49:43.237Z,35.10
2017-08-24T15:52:10.256Z,35.10
2017-08-24T15:54:36.613Z,35.10
2017-08-24T15:57:02.976Z,35.10
2017-08-24T15:59:29.362Z,35.10
2017-08-24T16:01:55.781Z,35.10
2017-08-24T16:04:22.385Z,34.90
2017-08-24T16:06:48.796Z,34.70
2017-08-24T16:09:15.330Z,34.70
2017-08-24T16:11:41.726Z,34.60
2017-08-24T16:14:08.157Z,34.50
2017-08-24T16:16:34.567Z,34.30
2017-08-24T16:19:01.073Z,34.40
2017-08-24T16:21:27.516Z,34.30
2017-08-24T16:23:53.996Z,34.30
2017-08-24T16:26:20.459Z,34.20
2017-08-24T16:28:46.897Z,34.10
2017-08-24T16:31:13.419Z,34.00
2017-08-24T16:33:39.871Z,33.80
2017-08-24T16:36:06.668Z,33.70
2017-08-24T16:38:33.088Z,33.60
2017-08-24T16:40:59.512Z,33.30
2017-08-24T16:43:25.942Z,32.90
2017-08-24T16:45:52.323Z,32.50
2017-08-24T16:48:18.728Z,32.30
2017-08-24T16:50:45.165Z,32.00
2017-08-24T16:53:11.587Z,31.70
2017-08-24T16:55:37.947Z,31.30
2017-08-24T16:58:04.584Z,30.80
2017-08-24T17:00:30.927Z,30.50
2017-08-24T17:03:03.399Z,30.10
2017-08-24T17:05:29.789Z,29.90
2017-08-24T17:07:56.165Z,29.60
2017-08-24T17:10:22.554Z,29.30
2017-08-24T17:12:48.884Z,29.00
2017-08-24T17:15:15.260Z,28.70
2017-08-24T17:17:42.890Z,28.50
2017-08-24T17:20:11.655Z,28.20
2017-08-24T17:22:39.239Z,28.00
2017-08-24T17:25:13.862Z,27.80
2017-08-24T17:27:40.390Z,27.60
2017-08-24T17:30:06.875Z,27.40
2017-08-24T17:32:33.404Z,27.20
2017-08-24T17:34:59.778Z,27.00
2017-08-24T17:37:26.157Z,26.90
2017-08-24T17:39:52.554Z,26.70
2017-08-24T17:42:18.927Z,26.50
2017-08-24T17:44:45.318Z,26.30
2017-08-24T17:47:11.717Z,26.10
2017-08-24T17:49:38.085Z,26.00
2017-08-24T17:52:04.759Z,25.80
2017-08-24T17:54:31.102Z,25.60
2017-08-24T17:56:57.469Z,25.40
2017-08-24T17:59:23.875Z,25.30
2017-08-24T18:01:50.265Z,25.20
2017-08-24T18:04:16.657Z,25.10
2017-08-24T18:06:43.177Z,25.00
2017-08-24T18:09:09.861Z,24.90
2017-08-24T18:11:36.371Z,24.70
2017-08-24T18:14:02.834Z,24.60
2017-08-24T18:16:29.585Z,24.50
2017-08-24T18:18:56.142Z,24.40
2017-08-24T18:21:22.615Z,24.30
2017-08-24T18:23:49.311Z,24.10
2017-08-24T18:26:15.704Z,24.00
2017-08-24T18:28:42.851Z,24.00
2017-08-24T18:31:09.232Z,23.90
2017-08-24T18:33:35.650Z,23.90
2017-08-24T18:36:02.069Z,23.90
2017-08-24T18:38:28.473Z,23.80
2017-08-24T18:40:55.118Z,23.70
2017-08-24T18:43:21.532Z,23.60
2017-08-24T18:45:47.926Z,23.50
2017-08-24T18:48:14.344Z,23.50
2017-08-24T18:50:40.770Z,23.40
2017-08-24T18:53:07.152Z,23.40
2017-08-24T18:55:33.533Z,23.30
2017-08-24T18:57:59.934Z,23.30
2017-08-24T19:00:26.378Z,23.20
2017-08-24T19:02:53.102Z,23.20
2017-08-24T19:05:19.491Z,23.10
2017-08-24T19:07:45.918Z,23.10
2017-08-24T19:10:12.377Z,23.10
2017-08-24T19:12:38.758Z,23.00
2017-08-24T19:15:05.267Z,23.00
2017-08-24T19:17:31.693Z,22.80
2017-08-24T19:19:58.270Z,22.70
2017-08-24T19:22:24.669Z,22.60
2017-08-24T19:24:51.357Z,22.40
2017-08-24T19:27:17.751Z,22.40
2017-08-24T19:29:44.196Z,22.50
2017-08-24T19:32:10.616Z,22.50
2017-08-24T19:34:37.067Z,22.40
2017-08-24T19:37:03.465Z,22.30
2017-08-24T19:39:29.917Z,22.00
2017-08-24T19:41:56.451Z,21.70
2017-08-24T19:44:22.895Z,21.50
2017-08-24T19:46:49.317Z,21.40
2017-08-24T19:49:15.747Z,21.30
2017-08-24T19:51:42.449Z,21.00
2017-08-24T19:54:08.848Z,21.00
2017-08-24T19:56:35.232Z,20.90
2017-08-24T19:59:01.649Z,20.70
2017-08-24T20:01:28.831Z,20.60
2017-08-24T20:03:55.643Z,20.50
2017-08-24T20:06:22.074Z,20.30
2017-08-24T20:08:48.752Z,20.10
2017-08-24T20:11:15.197Z,20.00
2017-08-24T20:13:41.561Z,20.00
2017-08-24T20:16:08.862Z,19.90
2017-08-24T20:18:35.388Z,19.90
2017-08-24T20:21:01.877Z,19.80
2017-08-24T20:23:28.325Z,19.80
2017-08-24T20:25:54.683Z,19.70
2017-08-24T20:28:21.126Z,19.60
2017-08-24T20:30:47.901Z,19.60
2017-08-24T20:33:14.244Z,19.60
2017-08-24T20:35:40.614Z,19.60
2017-08-24T20:38:07.173Z,19.60
2017-08-24T20:40:33.589Z,19.50
2017-08-24T20:43:00.020Z,19.50
2017-08-24T20:45:26.414Z,19.40
2017-08-24T20:47:52.826Z,19.40
2017-08-24T20:50:19.180Z,19.30
2017-08-24T20:52:45.888Z,19.10
2017-08-24T20:55:12.733Z,19.10
2017-08-24T20:57:39.110Z,19.00
2017-08-24T21:00:05.515Z,18.90
2017-08-24T21:02:31.871Z,18.80
2017-08-24T21:04:58.255Z,18.70
2017-08-24T21:07:24.659Z,18.60
2017-08-24T21:09:51.044Z,18.50
2017-08-24T21:12:17.411Z,18.30
2017-08-24T21:14:44.203Z,18.30
2017-08-24T21:17:10.550Z,18.30
2017-08-24T21:19:36.952Z,18.20
2017-08-24T21:22:03.308Z,18.20
2017-08-24T21:24:29.732Z,18.20
2017-08-24T21:26:56.095Z,18.20
2017-08-24T21:29:22.460Z,18.20
2017-08-24T21:31:48.844Z,18.20
2017-08-24T21:34:15.207Z,18.20
2017-08-24T21:36:41.937Z,18.20
2017-08-24T21:39:08.342Z,18.20
2017-08-24T21:41:34.698Z,18.30
2017-08-24T21:44:01.122Z,18.30
2017-08-24T21:46:27.516Z,18.20
2017-08-24T21:48:53.881Z,18.20
2017-08-24T21:51:20.239Z,18.20
2017-08-24T21:53:46.609Z,18.20
2017-08-24T21:56:12.964Z,18.20
2017-08-24T21:58:39.622Z,18.20
2017-08-24T22:01:05.947Z,18.20
2017-08-24T22:03:32.356Z,18.20
2017-08-24T22:05:58.729Z,18.20
2017-08-24T22:08:25.118Z,18.20
2017-08-24T22:10:51.473Z,18.20
2017-08-24T22:13:17.859Z,18.20
2017-08-24T22:15:44.305Z,18.20
2017-08-24T22:18:10.699Z,18.20
2017-08-24T22:20:37.374Z,18.20
2017-08-24T22:23:03.659Z,18.20
2017-08-24T22:25:30.032Z,18.30
2017-08-24T22:27:56.396Z,18.30
2017-08-24T22:30:22.734Z,18.30
2017-08-24T22:32:49.105Z,18.30
2017-08-24T22:35:16.354Z,18.30
2017-08-24T22:37:42.824Z,18.20
2017-08-24T22:40:09.209Z,18.20
2017-08-24T22:42:36.261Z,18.20
2017-08-24T22:45:03.310Z,18.20
2017-08-24T22:47:30.086Z,18.20
2017-08-24T22:49:56.428Z,18.20
2017-08-24T22:52:22.777Z,18.20
2017-08-24T22:54:55.262Z,18.20
2017-08-24T22:57:27.566Z,18.10
2017-08-24T22:59:59.876Z,18.10
2017-08-24T23:02:32.209Z,18.10
2017-08-24T23:04:58.569Z,18.10
2017-08-24T23:07:24.935Z,18.10
2017-08-24T23:09:51.291Z,18.10
2017-08-24T23:12:17.657Z,18.10
2017-08-24T23:14:44.141Z,18.10
2017-08-24T23:17:10.518Z,18.10
2017-08-24T23:19:37.238Z,18.10
2017-08-24T23:22:03.617Z,18.10
2017-08-24T23:24:29.965Z,18.00
2017-08-24T23:26:56.409Z,18.00
2017-08-24T23:29:22.774Z,18.00
2017-08-24T23:31:49.204Z,18.00
2017-08-24T23:34:16.102Z,18.00
2017-08-24T23:36:42.828Z,18.00
2017-08-24T23:39:09.186Z,17.90
2017-08-24T23:41:35.958Z,17.90
2017-08-24T23:46:35.759Z,17.90
2017-08-24T23:49:02.115Z,17.90
2017-08-24T23:51:28.474Z,17.90
2017-08-24T23:53:54.868Z,17.90
2017-08-24T23:56:21.254Z,17.90
2017-08-24T23:58:47.659Z,17.90
